Main page
METAR-TAF:

METAR-TAF

Airports :

Fujairah International Airport

Fujairah, United Arab Emirates

latitude: 25-06N, longitude: 056-20E, elevation: 28 m

Current weather observation

The report was made 32 minutes ago, at 23:00 UTC
Wind 5 kt from the East, varying between East/Northeast and East/Southeast
Temperature 34°C
Humidity 80%
Pressure 996 hPa
Visibility: 6000 m

METAR: OMFJ 172300Z 08005KT 060V120 6000 NSC 34/30 Q0996 A2941

Time: 03:32 (23:32 UTC)

Forecast

The report was made 6 hours and 32 minutes ago, at 17:00 UTC
Forecast valid from 17 at 18 UTC to 19 at 00 UTC
Wind 6 kt from the South/Southeast
Visibility: 6000 m
Becoming
from 18 at 03 UTC to 18 at 05 UTC
Wind 10 kt from the East
Scattered clouds at a height of 2500 ft
Becoming
from 18 at 15 UTC to 18 at 17 UTC
Wind 6 kt from the South/Southeast

TAF: OMFJ 171700Z 1718/1900 15006KT 6000 NSC BECMG 1803/1805 09010KT SCT025 BECMG 1815/1817 16006KT

Weather observations and forecasts of more than 4000 airports (METAR and TAF reports).

The available stations are represented by yellow and red dots on the map.

Hover mouse over dot to see the name of the station.

Then click to see weather observations and forecasts.

To change the map : click on the green buttons with a black cross to zoom in, on the green button with a dash to zoom out, or on the green arrows for adjacent maps.


METAR-TAF: